sensor_id;sensor_type;location;lat;lon;timestamp;P1;durP1;ratioP1;P2;durP2;ratioP2
49728;SDS011;66333;49.798;10.968;2023-08-21T00:00:06;14.15;;;12.75;;
49728;SDS011;66333;49.798;10.968;2023-08-21T00:02:36;13.50;;;12.25;;
49728;SDS011;66333;49.798;10.968;2023-08-21T00:05:04;14.23;;;12.93;;
49728;SDS011;66333;49.798;10.968;2023-08-21T00:07:33;13.93;;;12.63;;
49728;SDS011;66333;49.798;10.968;2023-08-21T00:10:01;13.80;;;12.50;;
49728;SDS011;66333;49.798;10.968;2023-08-21T00:12:29;14.30;;;12.90;;
49728;SDS011;66333;49.798;10.968;2023-08-21T00:14:57;14.20;;;12.90;;
49728;SDS011;66333;49.798;10.968;2023-08-21T00:17:25;15.00;;;13.60;;
49728;SDS011;66333;49.798;10.968;2023-08-21T00:19:55;14.18;;;12.88;;
49728;SDS011;66333;49.798;10.968;2023-08-21T00:22:25;14.68;;;13.27;;
49728;SDS011;66333;49.798;10.968;2023-08-21T00:24:56;14.30;;;13.00;;
49728;SDS011;66333;49.798;10.968;2023-08-21T00:27:26;14.40;;;13.00;;
49728;SDS011;66333;49.798;10.968;2023-08-21T00:29:55;14.32;;;12.93;;
49728;SDS011;66333;49.798;10.968;2023-08-21T00:32:23;14.55;;;13.25;;
49728;SDS011;66333;49.798;10.968;2023-08-21T00:34:51;14.38;;;13.07;;
49728;SDS011;66333;49.798;10.968;2023-08-21T00:37:19;14.93;;;13.52;;
49728;SDS011;66333;49.798;10.968;2023-08-21T00:39:47;14.57;;;13.18;;
49728;SDS011;66333;49.798;10.968;2023-08-21T00:42:20;15.35;;;13.88;;
49728;SDS011;66333;49.798;10.968;2023-08-21T00:44:48;15.40;;;14.00;;
49728;SDS011;66333;49.798;10.968;2023-08-21T00:47:15;14.30;;;12.90;;
49728;SDS011;66333;49.798;10.968;2023-08-21T00:49:46;14.77;;;13.38;;
49728;SDS011;66333;49.798;10.968;2023-08-21T00:52:15;15.15;;;13.75;;
49728;SDS011;66333;49.798;10.968;2023-08-21T00:54:43;15.30;;;13.85;;
49728;SDS011;66333;49.798;10.968;2023-08-21T00:57:10;14.68;;;13.27;;
49728;SDS011;66333;49.798;10.968;2023-08-21T00:59:41;14.50;;;13.20;;
49728;SDS011;66333;49.798;10.968;2023-08-21T01:02:10;15.23;;;13.82;;
49728;SDS011;66333;49.798;10.968;2023-08-21T01:04:38;14.50;;;13.10;;
49728;SDS011;66333;49.798;10.968;2023-08-21T01:07:06;14.93;;;13.60;;
49728;SDS011;66333;49.798;10.968;2023-08-21T01:09:39;15.00;;;13.60;;
49728;SDS011;66333;49.798;10.968;2023-08-21T01:12:14;15.98;;;14.48;;
49728;SDS011;66333;49.798;10.968;2023-08-21T01:14:53;15.32;;;13.93;;
49728;SDS011;66333;49.798;10.968;2023-08-21T01:17:27;15.23;;;13.82;;
49728;SDS011;66333;49.798;10.968;2023-08-21T01:19:56;14.95;;;13.55;;
49728;SDS011;66333;49.798;10.968;2023-08-21T01:22:26;15.27;;;13.85;;
49728;SDS011;66333;49.798;10.968;2023-08-21T01:24:55;15.50;;;14.10;;
49728;SDS011;66333;49.798;10.968;2023-08-21T01:27:25;15.80;;;14.32;;
49728;SDS011;66333;49.798;10.968;2023-08-21T01:29:53;15.63;;;14.13;;
49728;SDS011;66333;49.798;10.968;2023-08-21T01:32:23;14.95;;;13.55;;
49728;SDS011;66333;49.798;10.968;2023-08-21T01:35:00;15.63;;;14.23;;
49728;SDS011;66333;49.798;10.968;2023-08-21T01:37:31;16.15;;;14.65;;
49728;SDS011;66333;49.798;10.968;2023-08-21T01:40:00;15.65;;;14.18;;
49728;SDS011;66333;49.798;10.968;2023-08-21T01:42:28;15.48;;;14.05;;
49728;SDS011;66333;49.798;10.968;2023-08-21T01:44:56;15.35;;;13.88;;
49728;SDS011;66333;49.798;10.968;2023-08-21T01:47:25;16.30;;;14.80;;
49728;SDS011;66333;49.798;10.968;2023-08-21T01:49:53;15.65;;;14.25;;
49728;SDS011;66333;49.798;10.968;2023-08-21T01:52:21;15.95;;;14.43;;
49728;SDS011;66333;49.798;10.968;2023-08-21T01:54:49;15.27;;;13.77;;
49728;SDS011;66333;49.798;10.968;2023-08-21T01:57:19;16.40;;;14.90;;
49728;SDS011;66333;49.798;10.968;2023-08-21T01:59:47;16.02;;;14.48;;
49728;SDS011;66333;49.798;10.968;2023-08-21T02:02:15;16.30;;;14.70;;
49728;SDS011;66333;49.798;10.968;2023-08-21T02:04:42;15.80;;;14.30;;
49728;SDS011;66333;49.798;10.968;2023-08-21T02:07:09;16.13;;;14.63;;
49728;SDS011;66333;49.798;10.968;2023-08-21T02:09:38;15.95;;;14.45;;
49728;SDS011;66333;49.798;10.968;2023-08-21T02:12:06;16.02;;;14.52;;
49728;SDS011;66333;49.798;10.968;2023-08-21T02:14:41;17.35;;;15.73;;
49728;SDS011;66333;49.798;10.968;2023-08-21T02:17:09;16.63;;;15.02;;
49728;SDS011;66333;49.798;10.968;2023-08-21T02:19:37;15.90;;;14.30;;
49728;SDS011;66333;49.798;10.968;2023-08-21T02:22:07;15.82;;;14.32;;
49728;SDS011;66333;49.798;10.968;2023-08-21T02:24:37;15.82;;;14.32;;
49728;SDS011;66333;49.798;10.968;2023-08-21T02:27:03;16.90;;;15.27;;
49728;SDS011;66333;49.798;10.968;2023-08-21T02:29:31;16.17;;;14.68;;
49728;SDS011;66333;49.798;10.968;2023-08-21T02:32:00;16.83;;;15.23;;
49728;SDS011;66333;49.798;10.968;2023-08-21T02:34:28;16.90;;;15.30;;
49728;SDS011;66333;49.798;10.968;2023-08-21T02:36:56;16.83;;;15.23;;
49728;SDS011;66333;49.798;10.968;2023-08-21T02:39:25;16.23;;;14.73;;
49728;SDS011;66333;49.798;10.968;2023-08-21T02:41:52;16.27;;;14.77;;
49728;SDS011;66333;49.798;10.968;2023-08-21T02:44:20;16.58;;;14.98;;
49728;SDS011;66333;49.798;10.968;2023-08-21T02:46:47;16.20;;;14.63;;
49728;SDS011;66333;49.798;10.968;2023-08-21T02:49:28;16.63;;;15.02;;
49728;SDS011;66333;49.798;10.968;2023-08-21T02:51:56;16.42;;;14.77;;
49728;SDS011;66333;49.798;10.968;2023-08-21T02:54:27;16.33;;;14.82;;
49728;SDS011;66333;49.798;10.968;2023-08-21T02:56:56;16.88;;;15.27;;
49728;SDS011;66333;49.798;10.968;2023-08-21T02:59:24;17.45;;;15.85;;
49728;SDS011;66333;49.798;10.968;2023-08-21T03:01:53;16.00;;;14.50;;
49728;SDS011;66333;49.798;10.968;2023-08-21T03:04:22;16.73;;;15.15;;
49728;SDS011;66333;49.798;10.968;2023-08-21T03:06:50;17.05;;;15.45;;
49728;SDS011;66333;49.798;10.968;2023-08-21T03:09:18;16.65;;;15.15;;
49728;SDS011;66333;49.798;10.968;2023-08-21T03:11:45;17.63;;;15.93;;
49728;SDS011;66333;49.798;10.968;2023-08-21T03:14:15;16.13;;;14.57;;
49728;SDS011;66333;49.798;10.968;2023-08-21T03:16:43;16.70;;;15.20;;
49728;SDS011;66333;49.798;10.968;2023-08-21T03:19:11;16.90;;;15.30;;
49728;SDS011;66333;49.798;10.968;2023-08-21T03:21:40;17.55;;;15.93;;
49728;SDS011;66333;49.798;10.968;2023-08-21T03:24:10;16.92;;;15.32;;
49728;SDS011;66333;49.798;10.968;2023-08-21T03:26:38;17.17;;;15.48;;
49728;SDS011;66333;49.798;10.968;2023-08-21T03:29:05;17.90;;;16.20;;
49728;SDS011;66333;49.798;10.968;2023-08-21T03:31:33;17.20;;;15.60;;
49728;SDS011;66333;49.798;10.968;2023-08-21T03:34:01;17.70;;;16.00;;
49728;SDS011;66333;49.798;10.968;2023-08-21T03:36:29;17.50;;;15.90;;
49728;SDS011;66333;49.798;10.968;2023-08-21T03:38:59;16.67;;;15.13;;
49728;SDS011;66333;49.798;10.968;2023-08-21T03:41:26;16.33;;;14.80;;
49728;SDS011;66333;49.798;10.968;2023-08-21T03:43:56;16.50;;;14.90;;
49728;SDS011;66333;49.798;10.968;2023-08-21T03:46:25;16.40;;;14.90;;
49728;SDS011;66333;49.798;10.968;2023-08-21T03:48:52;16.58;;;14.98;;
49728;SDS011;66333;49.798;10.968;2023-08-21T03:51:20;16.67;;;15.07;;
49728;SDS011;66333;49.798;10.968;2023-08-21T03:53:49;17.20;;;15.60;;
49728;SDS011;66333;49.798;10.968;2023-08-21T03:56:20;17.35;;;15.60;;
49728;SDS011;66333;49.798;10.968;2023-08-21T03:58:48;16.42;;;14.90;;
49728;SDS011;66333;49.798;10.968;2023-08-21T04:01:18;16.20;;;14.70;;
49728;SDS011;66333;49.798;10.968;2023-08-21T04:03:48;18.20;;;16.48;;
49728;SDS011;66333;49.798;10.968;2023-08-21T04:06:16;17.70;;;16.02;;
49728;SDS011;66333;49.798;10.968;2023-08-21T04:08:44;18.13;;;16.42;;
49728;SDS011;66333;49.798;10.968;2023-08-21T04:11:12;17.27;;;15.68;;
49728;SDS011;66333;49.798;10.968;2023-08-21T04:13:47;18.38;;;16.48;;
49728;SDS011;66333;49.798;10.968;2023-08-21T04:16:15;17.08;;;15.48;;
49728;SDS011;66333;49.798;10.968;2023-08-21T04:18:45;17.52;;;15.93;;
49728;SDS011;66333;49.798;10.968;2023-08-21T04:21:13;17.98;;;16.27;;
49728;SDS011;66333;49.798;10.968;2023-08-21T04:23:40;17.75;;;16.10;;
49728;SDS011;66333;49.798;10.968;2023-08-21T04:26:08;17.77;;;16.08;;
49728;SDS011;66333;49.798;10.968;2023-08-21T04:28:35;17.40;;;15.73;;
49728;SDS011;66333;49.798;10.968;2023-08-21T04:31:05;17.38;;;15.63;;
49728;SDS011;66333;49.798;10.968;2023-08-21T04:33:40;17.83;;;16.13;;
49728;SDS011;66333;49.798;10.968;2023-08-21T04:36:14;17.33;;;15.73;;
49728;SDS011;66333;49.798;10.968;2023-08-21T04:38:43;17.83;;;16.15;;
49728;SDS011;66333;49.798;10.968;2023-08-21T04:41:10;18.10;;;16.30;;
49728;SDS011;66333;49.798;10.968;2023-08-21T04:43:38;18.05;;;16.35;;
49728;SDS011;66333;49.798;10.968;2023-08-21T04:46:07;17.83;;;16.13;;
49728;SDS011;66333;49.798;10.968;2023-08-21T04:48:35;17.38;;;15.77;;
49728;SDS011;66333;49.798;10.968;2023-08-21T04:51:03;18.55;;;16.75;;
49728;SDS011;66333;49.798;10.968;2023-08-21T04:53:31;17.52;;;15.82;;
49728;SDS011;66333;49.798;10.968;2023-08-21T04:55:59;18.50;;;16.73;;
49728;SDS011;66333;49.798;10.968;2023-08-21T04:58:27;17.70;;;15.93;;
49728;SDS011;66333;49.798;10.968;2023-08-21T05:00:55;17.55;;;15.85;;
49728;SDS011;66333;49.798;10.968;2023-08-21T05:03:24;18.20;;;16.30;;
49728;SDS011;66333;49.798;10.968;2023-08-21T05:05:55;17.67;;;15.98;;
49728;SDS011;66333;49.798;10.968;2023-08-21T05:08:23;18.88;;;17.08;;
49728;SDS011;66333;49.798;10.968;2023-08-21T05:10:54;18.88;;;17.08;;
49728;SDS011;66333;49.798;10.968;2023-08-21T05:13:22;17.70;;;16.00;;
49728;SDS011;66333;49.798;10.968;2023-08-21T05:15:52;18.67;;;16.80;;
49728;SDS011;66333;49.798;10.968;2023-08-21T05:18:20;17.67;;;15.98;;
49728;SDS011;66333;49.798;10.968;2023-08-21T05:20:53;18.27;;;16.55;;
49728;SDS011;66333;49.798;10.968;2023-08-21T05:23:22;18.58;;;16.80;;
49728;SDS011;66333;49.798;10.968;2023-08-21T05:25:50;18.30;;;16.58;;
49728;SDS011;66333;49.798;10.968;2023-08-21T05:28:18;18.40;;;16.63;;
49728;SDS011;66333;49.798;10.968;2023-08-21T05:30:48;18.20;;;16.40;;
49728;SDS011;66333;49.798;10.968;2023-08-21T05:33:19;18.42;;;16.73;;
49728;SDS011;66333;49.798;10.968;2023-08-21T05:35:46;18.15;;;16.45;;
49728;SDS011;66333;49.798;10.968;2023-08-21T05:38:15;18.42;;;16.55;;
49728;SDS011;66333;49.798;10.968;2023-08-21T05:40:43;18.35;;;16.65;;
49728;SDS011;66333;49.798;10.968;2023-08-21T05:43:10;18.52;;;16.80;;
49728;SDS011;66333;49.798;10.968;2023-08-21T05:45:38;18.45;;;16.65;;
49728;SDS011;66333;49.798;10.968;2023-08-21T05:48:08;18.90;;;17.10;;
49728;SDS011;66333;49.798;10.968;2023-08-21T05:50:36;19.00;;;17.17;;
49728;SDS011;66333;49.798;10.968;2023-08-21T05:53:04;18.60;;;16.80;;
49728;SDS011;66333;49.798;10.968;2023-08-21T05:55:37;18.27;;;16.58;;
49728;SDS011;66333;49.798;10.968;2023-08-21T05:58:06;19.67;;;17.67;;
49728;SDS011;66333;49.798;10.968;2023-08-21T06:00:37;20.38;;;18.15;;
49728;SDS011;66333;49.798;10.968;2023-08-21T06:03:06;19.45;;;17.30;;
49728;SDS011;66333;49.798;10.968;2023-08-21T06:05:34;19.40;;;17.38;;
49728;SDS011;66333;49.798;10.968;2023-08-21T06:08:02;22.17;;;18.10;;
49728;SDS011;66333;49.798;10.968;2023-08-21T06:10:30;20.98;;;17.90;;
49728;SDS011;66333;49.798;10.968;2023-08-21T06:12:59;20.75;;;18.50;;
49728;SDS011;66333;49.798;10.968;2023-08-21T06:15:27;20.38;;;18.27;;
49728;SDS011;66333;49.798;10.968;2023-08-21T06:17:57;19.15;;;17.05;;
49728;SDS011;66333;49.798;10.968;2023-08-21T06:20:27;20.08;;;17.30;;
49728;SDS011;66333;49.798;10.968;2023-08-21T06:22:55;19.88;;;17.88;;
49728;SDS011;66333;49.798;10.968;2023-08-21T06:25:22;20.80;;;17.77;;
49728;SDS011;66333;49.798;10.968;2023-08-21T06:27:52;20.40;;;17.77;;
49728;SDS011;66333;49.798;10.968;2023-08-21T06:30:20;21.58;;;18.42;;
49728;SDS011;66333;49.798;10.968;2023-08-21T06:32:48;19.55;;;17.45;;
49728;SDS011;66333;49.798;10.968;2023-08-21T06:35:16;22.83;;;17.65;;
49728;SDS011;66333;49.798;10.968;2023-08-21T06:37:44;22.02;;;18.75;;
49728;SDS011;66333;49.798;10.968;2023-08-21T06:40:11;20.00;;;16.60;;
49728;SDS011;66333;49.798;10.968;2023-08-21T06:42:39;18.67;;;16.10;;
49728;SDS011;66333;49.798;10.968;2023-08-21T06:45:07;20.13;;;15.77;;
49728;SDS011;66333;49.798;10.968;2023-08-21T06:47:37;17.95;;;15.15;;
49728;SDS011;66333;49.798;10.968;2023-08-21T06:50:06;19.75;;;17.08;;
49728;SDS011;66333;49.798;10.968;2023-08-21T06:52:34;19.27;;;17.10;;
49728;SDS011;66333;49.798;10.968;2023-08-21T06:55:02;18.58;;;16.65;;
49728;SDS011;66333;49.798;10.968;2023-08-21T06:57:30;18.05;;;16.00;;
49728;SDS011;66333;49.798;10.968;2023-08-21T06:59:58;20.05;;;17.70;;
49728;SDS011;66333;49.798;10.968;2023-08-21T07:02:33;19.45;;;16.88;;
49728;SDS011;66333;49.798;10.968;2023-08-21T07:05:01;18.73;;;16.35;;
49728;SDS011;66333;49.798;10.968;2023-08-21T07:07:30;18.90;;;16.90;;
49728;SDS011;66333;49.798;10.968;2023-08-21T07:09:57;19.98;;;17.85;;
49728;SDS011;66333;49.798;10.968;2023-08-21T07:12:27;18.55;;;16.27;;
49728;SDS011;66333;49.798;10.968;2023-08-21T07:14:57;21.00;;;16.55;;
49728;SDS011;66333;49.798;10.968;2023-08-21T07:17:27;19.00;;;16.38;;
49728;SDS011;66333;49.798;10.968;2023-08-21T07:19:58;19.90;;;16.60;;
49728;SDS011;66333;49.798;10.968;2023-08-21T07:22:29;17.77;;;15.88;;
49728;SDS011;66333;49.798;10.968;2023-08-21T07:24:57;19.30;;;16.70;;
49728;SDS011;66333;49.798;10.968;2023-08-21T07:27:29;18.02;;;16.13;;
49728;SDS011;66333;49.798;10.968;2023-08-21T07:29:57;19.13;;;16.17;;
49728;SDS011;66333;49.798;10.968;2023-08-21T07:32:27;18.27;;;15.85;;
49728;SDS011;66333;49.798;10.968;2023-08-21T07:35:11;18.48;;;16.50;;
49728;SDS011;66333;49.798;10.968;2023-08-21T07:37:39;19.77;;;16.33;;
49728;SDS011;66333;49.798;10.968;2023-08-21T07:40:07;17.95;;;16.15;;
49728;SDS011;66333;49.798;10.968;2023-08-21T07:42:38;17.90;;;16.10;;
49728;SDS011;66333;49.798;10.968;2023-08-21T07:45:05;18.45;;;16.48;;
49728;SDS011;66333;49.798;10.968;2023-08-21T07:47:32;17.33;;;15.55;;
49728;SDS011;66333;49.798;10.968;2023-08-21T07:50:00;17.77;;;15.88;;
49728;SDS011;66333;49.798;10.968;2023-08-21T07:52:26;18.85;;;16.77;;
49728;SDS011;66333;49.798;10.968;2023-08-21T07:54:53;17.85;;;16.05;;
49728;SDS011;66333;49.798;10.968;2023-08-21T07:57:20;19.42;;;16.27;;
49728;SDS011;66333;49.798;10.968;2023-08-21T07:59:46;19.17;;;16.70;;
49728;SDS011;66333;49.798;10.968;2023-08-21T08:02:13;18.15;;;16.25;;
49728;SDS011;66333;49.798;10.968;2023-08-21T08:04:39;19.70;;;16.60;;
49728;SDS011;66333;49.798;10.968;2023-08-21T08:07:09;17.70;;;15.65;;
49728;SDS011;66333;49.798;10.968;2023-08-21T08:09:36;17.75;;;15.85;;
49728;SDS011;66333;49.798;10.968;2023-08-21T08:12:02;18.50;;;16.42;;
49728;SDS011;66333;49.798;10.968;2023-08-21T08:14:29;19.02;;;16.25;;
49728;SDS011;66333;49.798;10.968;2023-08-21T08:16:55;18.35;;;16.35;;
49728;SDS011;66333;49.798;10.968;2023-08-21T08:19:22;18.00;;;16.10;;
49728;SDS011;66333;49.798;10.968;2023-08-21T08:21:48;18.25;;;16.52;;
49728;SDS011;66333;49.798;10.968;2023-08-21T08:24:16;18.38;;;16.48;;
49728;SDS011;66333;49.798;10.968;2023-08-21T08:26:43;18.35;;;16.45;;
49728;SDS011;66333;49.798;10.968;2023-08-21T08:29:09;19.10;;;17.17;;
49728;SDS011;66333;49.798;10.968;2023-08-21T08:31:36;18.55;;;16.65;;
49728;SDS011;66333;49.798;10.968;2023-08-21T08:34:03;17.60;;;15.70;;
49728;SDS011;66333;49.798;10.968;2023-08-21T08:36:30;19.45;;;17.42;;
49728;SDS011;66333;49.798;10.968;2023-08-21T08:38:56;19.52;;;17.40;;
49728;SDS011;66333;49.798;10.968;2023-08-21T08:41:28;18.33;;;16.60;;
49728;SDS011;66333;49.798;10.968;2023-08-21T08:44:04;17.85;;;16.05;;
49728;SDS011;66333;49.798;10.968;2023-08-21T08:46:31;17.38;;;15.68;;
49728;SDS011;66333;49.798;10.968;2023-08-21T08:48:58;17.50;;;15.70;;
49728;SDS011;66333;49.798;10.968;2023-08-21T08:51:25;18.70;;;16.88;;
49728;SDS011;66333;49.798;10.968;2023-08-21T08:53:56;18.35;;;15.90;;
49728;SDS011;66333;49.798;10.968;2023-08-21T08:56:26;18.67;;;16.80;;
49728;SDS011;66333;49.798;10.968;2023-08-21T08:58:52;18.80;;;16.77;;
49728;SDS011;66333;49.798;10.968;2023-08-21T09:01:19;20.05;;;17.95;;
49728;SDS011;66333;49.798;10.968;2023-08-21T09:03:45;19.05;;;17.15;;
49728;SDS011;66333;49.798;10.968;2023-08-21T09:06:12;17.83;;;16.05;;
49728;SDS011;66333;49.798;10.968;2023-08-21T09:08:38;19.33;;;17.27;;
49728;SDS011;66333;49.798;10.968;2023-08-21T09:11:17;16.40;;;14.70;;
49728;SDS011;66333;49.798;10.968;2023-08-21T09:13:45;19.13;;;17.13;;
49728;SDS011;66333;49.798;10.968;2023-08-21T09:16:12;19.15;;;17.27;;
49728;SDS011;66333;49.798;10.968;2023-08-21T09:18:46;19.65;;;17.67;;
49728;SDS011;66333;49.798;10.968;2023-08-21T09:21:15;19.50;;;17.52;;
49728;SDS011;66333;49.798;10.968;2023-08-21T09:23:42;19.35;;;17.25;;
49728;SDS011;66333;49.798;10.968;2023-08-21T09:26:09;17.50;;;15.70;;
49728;SDS011;66333;49.798;10.968;2023-08-21T09:28:35;18.52;;;16.67;;
49728;SDS011;66333;49.798;10.968;2023-08-21T09:31:04;18.08;;;16.15;;
49728;SDS011;66333;49.798;10.968;2023-08-21T09:33:31;17.95;;;16.05;;
49728;SDS011;66333;49.798;10.968;2023-08-21T09:35:57;17.00;;;15.30;;
49728;SDS011;66333;49.798;10.968;2023-08-21T09:38:25;17.33;;;15.63;;
49728;SDS011;66333;49.798;10.968;2023-08-21T09:40:52;18.75;;;16.85;;
49728;SDS011;66333;49.798;10.968;2023-08-21T09:43:20;13.10;;;11.68;;
49728;SDS011;66333;49.798;10.968;2023-08-21T09:45:47;12.50;;;11.15;;
49728;SDS011;66333;49.798;10.968;2023-08-21T09:48:16;13.35;;;9.95;;
49728;SDS011;66333;49.798;10.968;2023-08-21T09:50:44;13.27;;;9.80;;
49728;SDS011;66333;49.798;10.968;2023-08-21T09:53:12;10.57;;;7.97;;
49728;SDS011;66333;49.798;10.968;2023-08-21T09:55:38;14.48;;;9.43;;
49728;SDS011;66333;49.798;10.968;2023-08-21T09:58:05;15.38;;;10.40;;
49728;SDS011;66333;49.798;10.968;2023-08-21T10:00:33;14.38;;;10.90;;
49728;SDS011;66333;49.798;10.968;2023-08-21T10:03:01;12.80;;;10.20;;
49728;SDS011;66333;49.798;10.968;2023-08-21T10:05:30;14.48;;;11.82;;
49728;SDS011;66333;49.798;10.968;2023-08-21T10:07:58;13.93;;;11.18;;
49728;SDS011;66333;49.798;10.968;2023-08-21T10:10:28;13.80;;;10.82;;
49728;SDS011;66333;49.798;10.968;2023-08-21T10:12:56;13.90;;;11.30;;
49728;SDS011;66333;49.798;10.968;2023-08-21T10:15:22;18.40;;;12.35;;
49728;SDS011;66333;49.798;10.968;2023-08-21T10:17:49;17.60;;;12.55;;
49728;SDS011;66333;49.798;10.968;2023-08-21T10:20:20;16.27;;;11.93;;
49728;SDS011;66333;49.798;10.968;2023-08-21T10:22:52;12.52;;;10.40;;
49728;SDS011;66333;49.798;10.968;2023-08-21T10:25:19;15.48;;;11.88;;
49728;SDS011;66333;49.798;10.968;2023-08-21T10:27:49;15.30;;;12.30;;
49728;SDS011;66333;49.798;10.968;2023-08-21T10:30:20;15.90;;;12.15;;
49728;SDS011;66333;49.798;10.968;2023-08-21T10:32:48;14.02;;;11.93;;
49728;SDS011;66333;49.798;10.968;2023-08-21T10:35:15;16.30;;;12.57;;
49728;SDS011;66333;49.798;10.968;2023-08-21T10:38:06;19.92;;;12.10;;
49728;SDS011;66333;49.798;10.968;2023-08-21T10:40:33;15.75;;;12.98;;
49728;SDS011;66333;49.798;10.968;2023-08-21T10:43:01;15.75;;;11.52;;
49728;SDS011;66333;49.798;10.968;2023-08-21T10:45:28;14.82;;;12.50;;
49728;SDS011;66333;49.798;10.968;2023-08-21T10:47:56;13.60;;;12.20;;
49728;SDS011;66333;49.798;10.968;2023-08-21T10:50:23;13.65;;;12.20;;
49728;SDS011;66333;49.798;10.968;2023-08-21T10:52:50;15.38;;;12.20;;
49728;SDS011;66333;49.798;10.968;2023-08-21T10:55:19;13.85;;;11.88;;
49728;SDS011;66333;49.798;10.968;2023-08-21T10:57:47;11.52;;;10.32;;
49728;SDS011;66333;49.798;10.968;2023-08-21T11:00:15;10.88;;;8.70;;
49728;SDS011;66333;49.798;10.968;2023-08-21T11:02:43;12.18;;;10.15;;
49728;SDS011;66333;49.798;10.968;2023-08-21T11:05:11;13.20;;;11.00;;
49728;SDS011;66333;49.798;10.968;2023-08-21T11:07:39;14.65;;;11.20;;
49728;SDS011;66333;49.798;10.968;2023-08-21T11:10:09;13.63;;;11.75;;
49728;SDS011;66333;49.798;10.968;2023-08-21T11:12:40;11.90;;;10.20;;
49728;SDS011;66333;49.798;10.968;2023-08-21T11:15:15;12.60;;;10.93;;
49728;SDS011;66333;49.798;10.968;2023-08-21T11:17:41;13.23;;;11.45;;
49728;SDS011;66333;49.798;10.968;2023-08-21T11:20:08;13.38;;;11.63;;
49728;SDS011;66333;49.798;10.968;2023-08-21T11:22:35;14.65;;;11.63;;
49728;SDS011;66333;49.798;10.968;2023-08-21T11:25:01;12.90;;;11.48;;
49728;SDS011;66333;49.798;10.968;2023-08-21T11:27:30;13.50;;;11.38;;
49728;SDS011;66333;49.798;10.968;2023-08-21T11:29:58;14.02;;;11.43;;
49728;SDS011;66333;49.798;10.968;2023-08-21T11:32:26;12.93;;;11.18;;
49728;SDS011;66333;49.798;10.968;2023-08-21T11:34:53;15.50;;;11.88;;
49728;SDS011;66333;49.798;10.968;2023-08-21T11:37:21;13.38;;;11.65;;
49728;SDS011;66333;49.798;10.968;2023-08-21T11:39:49;12.70;;;11.38;;
49728;SDS011;66333;49.798;10.968;2023-08-21T11:42:17;13.10;;;11.48;;
49728;SDS011;66333;49.798;10.968;2023-08-21T11:44:46;16.58;;;12.20;;
49728;SDS011;66333;49.798;10.968;2023-08-21T11:47:15;12.75;;;10.85;;
49728;SDS011;66333;49.798;10.968;2023-08-21T11:49:43;13.18;;;11.43;;
49728;SDS011;66333;49.798;10.968;2023-08-21T11:52:12;12.55;;;11.25;;
49728;SDS011;66333;49.798;10.968;2023-08-21T11:54:40;12.00;;;10.75;;
49728;SDS011;66333;49.798;10.968;2023-08-21T11:57:07;13.48;;;10.93;;
49728;SDS011;66333;49.798;10.968;2023-08-21T11:59:37;13.50;;;11.55;;
49728;SDS011;66333;49.798;10.968;2023-08-21T12:02:10;14.50;;;11.40;;
49728;SDS011;66333;49.798;10.968;2023-08-21T12:04:41;12.68;;;11.05;;
49728;SDS011;66333;49.798;10.968;2023-08-21T12:07:08;13.38;;;11.60;;
49728;SDS011;66333;49.798;10.968;2023-08-21T12:09:34;12.93;;;11.63;;
49728;SDS011;66333;49.798;10.968;2023-08-21T12:12:01;13.93;;;11.65;;
49728;SDS011;66333;49.798;10.968;2023-08-21T12:14:28;12.30;;;11.00;;
49728;SDS011;66333;49.798;10.968;2023-08-21T12:16:54;13.70;;;11.80;;
49728;SDS011;66333;49.798;10.968;2023-08-21T12:19:21;13.20;;;11.55;;
49728;SDS011;66333;49.798;10.968;2023-08-21T12:21:50;12.55;;;11.25;;
49728;SDS011;66333;49.798;10.968;2023-08-21T12:24:16;12.60;;;11.27;;
49728;SDS011;66333;49.798;10.968;2023-08-21T12:26:43;10.40;;;9.30;;
49728;SDS011;66333;49.798;10.968;2023-08-21T12:29:09;9.13;;;8.10;;
49728;SDS011;66333;49.798;10.968;2023-08-21T12:31:36;13.05;;;10.98;;
49728;SDS011;66333;49.798;10.968;2023-08-21T12:34:03;14.07;;;11.57;;
49728;SDS011;66333;49.798;10.968;2023-08-21T12:36:29;12.25;;;10.90;;
49728;SDS011;66333;49.798;10.968;2023-08-21T12:38:57;12.90;;;11.07;;
49728;SDS011;66333;49.798;10.968;2023-08-21T12:41:23;11.98;;;10.77;;
49728;SDS011;66333;49.798;10.968;2023-08-21T12:43:50;12.88;;;10.95;;
49728;SDS011;66333;49.798;10.968;2023-08-21T12:46:16;12.43;;;10.32;;
49728;SDS011;66333;49.798;10.968;2023-08-21T12:48:43;12.10;;;10.25;;
49728;SDS011;66333;49.798;10.968;2023-08-21T12:51:09;13.68;;;11.13;;
49728;SDS011;66333;49.798;10.968;2023-08-21T12:53:35;13.00;;;10.65;;
49728;SDS011;66333;49.798;10.968;2023-08-21T12:56:03;11.95;;;10.30;;
49728;SDS011;66333;49.798;10.968;2023-08-21T12:58:30;12.13;;;10.68;;
49728;SDS011;66333;49.798;10.968;2023-08-21T13:00:58;11.90;;;10.55;;
49728;SDS011;66333;49.798;10.968;2023-08-21T13:03:24;11.70;;;10.50;;
49728;SDS011;66333;49.798;10.968;2023-08-21T13:05:51;10.13;;;9.10;;
49728;SDS011;66333;49.798;10.968;2023-08-21T13:08:17;13.15;;;11.05;;
49728;SDS011;66333;49.798;10.968;2023-08-21T13:10:44;11.52;;;10.32;;
49728;SDS011;66333;49.798;10.968;2023-08-21T13:13:12;10.57;;;9.48;;
49728;SDS011;66333;49.798;10.968;2023-08-21T13:15:38;11.50;;;10.30;;
49728;SDS011;66333;49.798;10.968;2023-08-21T13:18:05;11.25;;;10.05;;
49728;SDS011;66333;49.798;10.968;2023-08-21T13:20:31;11.80;;;10.52;;
49728;SDS011;66333;49.798;10.968;2023-08-21T13:22:58;12.10;;;10.63;;
49728;SDS011;66333;49.798;10.968;2023-08-21T13:25:24;10.77;;;9.68;;
49728;SDS011;66333;49.798;10.968;2023-08-21T13:27:51;12.57;;;10.75;;
49728;SDS011;66333;49.798;10.968;2023-08-21T13:30:20;11.77;;;10.63;;
49728;SDS011;66333;49.798;10.968;2023-08-21T13:32:47;11.48;;;10.27;;
49728;SDS011;66333;49.798;10.968;2023-08-21T13:35:14;12.95;;;10.98;;
49728;SDS011;66333;49.798;10.968;2023-08-21T13:37:42;12.00;;;10.77;;
49728;SDS011;66333;49.798;10.968;2023-08-21T13:40:08;11.55;;;10.35;;
49728;SDS011;66333;49.798;10.968;2023-08-21T13:42:37;11.73;;;10.50;;
49728;SDS011;66333;49.798;10.968;2023-08-21T13:45:06;11.40;;;10.18;;
49728;SDS011;66333;49.798;10.968;2023-08-21T13:47:35;12.50;;;11.20;;
49728;SDS011;66333;49.798;10.968;2023-08-21T13:50:01;11.93;;;10.73;;
49728;SDS011;66333;49.798;10.968;2023-08-21T13:52:28;12.35;;;10.18;;
49728;SDS011;66333;49.798;10.968;2023-08-21T13:54:55;11.77;;;10.45;;
49728;SDS011;66333;49.798;10.968;2023-08-21T13:57:21;11.77;;;10.57;;
49728;SDS011;66333;49.798;10.968;2023-08-21T13:59:48;11.48;;;10.10;;
49728;SDS011;66333;49.798;10.968;2023-08-21T14:02:14;11.80;;;10.60;;
49728;SDS011;66333;49.798;10.968;2023-08-21T14:04:42;12.10;;;10.80;;
49728;SDS011;66333;49.798;10.968;2023-08-21T14:07:08;12.68;;;10.68;;
49728;SDS011;66333;49.798;10.968;2023-08-21T14:09:35;12.35;;;11.07;;
49728;SDS011;66333;49.798;10.968;2023-08-21T14:12:02;12.20;;;10.77;;
49728;SDS011;66333;49.798;10.968;2023-08-21T14:14:29;13.63;;;10.57;;